createdAt,value
2019-06-01T00:00:08.176Z,99.90
2019-06-01T00:02:25.092Z,99.90
2019-06-01T00:04:54.481Z,99.90
2019-06-01T00:07:24.556Z,99.90
2019-06-01T00:09:54.809Z,99.90
2019-06-01T00:12:24.843Z,99.90
2019-06-01T00:14:54.990Z,99.90
2019-06-01T00:17:25.238Z,99.90
2019-06-01T00:19:55.336Z,99.90
2019-06-01T00:22:25.473Z,99.90
2019-06-01T00:24:55.565Z,99.90
2019-06-01T00:27:25.875Z,99.90
2019-06-01T00:29:55.850Z,99.90
2019-06-01T00:32:26.104Z,99.90
2019-06-01T00:34:57.630Z,99.90
2019-06-01T00:37:26.952Z,99.90
2019-06-01T00:39:56.451Z,99.90
2019-06-01T00:42:26.678Z,99.90
2019-06-01T00:44:56.750Z,99.90
2019-06-01T00:47:26.988Z,99.90
2019-06-01T00:49:57.393Z,99.90
2019-06-01T00:52:27.280Z,99.90
2019-06-01T00:54:57.362Z,99.90
2019-06-01T00:57:27.595Z,99.90
2019-06-01T00:59:57.656Z,99.90
2019-06-01T01:02:27.957Z,99.90
2019-06-01T01:05:02.778Z,99.90
2019-06-01T01:07:32.142Z,99.90
2019-06-01T01:10:01.515Z,99.90
2019-06-01T01:12:30.925Z,99.90
2019-06-01T01:15:00.244Z,99.90
2019-06-01T01:17:29.568Z,99.90
2019-06-01T01:19:59.395Z,99.90
2019-06-01T01:22:29.028Z,99.90
2019-06-01T01:24:59.174Z,99.90
2019-06-01T01:27:29.465Z,99.90
2019-06-01T01:29:59.416Z,99.90
2019-06-01T01:32:29.664Z,99.90
2019-06-01T01:34:59.723Z,99.90
2019-06-01T01:37:30.000Z,99.90
2019-06-01T01:40:00.040Z,99.90
2019-06-01T01:42:30.319Z,99.90
2019-06-01T01:45:00.621Z,99.90
2019-06-01T01:47:31.568Z,99.90
2019-06-01T01:50:03.045Z,99.90
2019-06-01T01:52:32.510Z,99.90
2019-06-01T01:55:03.238Z,99.90
2019-06-01T01:57:32.974Z,99.90
2019-06-01T02:00:02.579Z,99.90
2019-06-01T02:02:32.065Z,99.90
2019-06-01T02:05:03.181Z,99.90
2019-06-01T02:07:32.572Z,99.90
2019-06-01T02:10:02.048Z,99.90
2019-06-01T02:12:32.125Z,99.90
2019-06-01T02:15:02.357Z,99.90
2019-06-01T02:17:32.799Z,99.90
2019-06-01T02:20:04.024Z,99.90
2019-06-01T02:22:33.348Z,99.90
2019-06-01T02:25:04.030Z,99.90
2019-06-01T02:27:33.408Z,99.90
2019-06-01T02:30:05.644Z,99.90
2019-06-01T02:32:34.786Z,99.90
2019-06-01T02:35:06.358Z,99.90
2019-06-01T02:37:35.689Z,99.90
2019-06-01T02:40:08.701Z,99.90
2019-06-01T02:42:38.997Z,99.90
2019-06-01T02:45:13.182Z,99.90
2019-06-01T02:47:42.527Z,99.90
2019-06-01T02:50:11.984Z,99.90
2019-06-01T02:52:41.309Z,99.90
2019-06-01T02:55:16.438Z,99.90
2019-06-01T02:57:45.780Z,99.90
2019-06-01T03:00:16.941Z,99.90
2019-06-01T03:02:47.127Z,99.90
2019-06-01T03:05:17.018Z,99.90
2019-06-01T03:07:48.989Z,99.90
2019-06-01T03:10:18.565Z,99.90
2019-06-01T03:12:47.979Z,99.90
2019-06-01T03:15:18.365Z,99.90
2019-06-01T03:17:48.880Z,99.90
2019-06-01T03:20:21.103Z,99.90
2019-06-01T03:22:52.292Z,99.90
2019-06-01T03:25:21.623Z,99.90
2019-06-01T03:27:53.667Z,99.90
2019-06-01T03:30:45.548Z,99.90
2019-06-01T03:33:14.175Z,99.90
2019-06-01T03:35:43.884Z,99.90
2019-06-01T03:38:13.218Z,99.90
2019-06-01T03:40:42.526Z,99.90
2019-06-01T03:43:13.415Z,99.90
2019-06-01T03:45:42.721Z,99.90
2019-06-01T03:48:12.983Z,99.90
2019-06-01T03:50:42.414Z,99.90
2019-06-01T03:53:12.190Z,99.90
2019-06-01T03:55:41.635Z,99.90
2019-06-01T03:58:11.216Z,99.90
2019-06-01T04:00:40.679Z,99.90
2019-06-01T04:03:10.995Z,99.90
2019-06-01T04:05:40.519Z,99.90
2019-06-01T04:08:12.292Z,99.90
2019-06-01T04:10:40.123Z,99.90
2019-06-01T04:13:09.661Z,99.90
2019-06-01T04:15:39.871Z,99.90
2019-06-01T04:18:10.304Z,99.90
2019-06-01T04:20:40.372Z,99.90
2019-06-01T04:23:10.638Z,99.90
2019-06-01T04:25:40.822Z,99.90
2019-06-01T04:28:13.885Z,99.90
2019-06-01T04:30:43.327Z,99.90
2019-06-01T04:33:13.272Z,99.90
2019-06-01T04:35:42.975Z,99.90
2019-06-01T04:38:13.406Z,99.90
2019-06-01T04:40:43.897Z,99.90
2019-06-01T04:43:14.182Z,99.90
2019-06-01T04:45:43.864Z,99.90
2019-06-01T04:48:13.181Z,99.90
2019-06-01T04:50:42.575Z,99.90
2019-06-01T04:53:13.439Z,99.90
2019-06-01T04:55:42.883Z,99.90
2019-06-01T04:58:13.084Z,99.90
2019-06-01T05:00:42.759Z,99.90
2019-06-01T05:03:13.592Z,99.90
2019-06-01T05:05:43.129Z,99.90
2019-06-01T05:08:13.934Z,99.90
2019-06-01T05:10:43.489Z,99.90
2019-06-01T05:13:13.797Z,99.90
2019-06-01T05:15:43.765Z,99.90
2019-06-01T05:18:14.241Z,99.90
2019-06-01T05:20:44.091Z,99.90
2019-06-01T05:23:14.827Z,99.90
2019-06-01T05:25:44.305Z,99.90
2019-06-01T05:28:15.286Z,99.90
2019-06-01T05:30:44.845Z,99.90
2019-06-01T05:33:29.494Z,99.90
2019-06-01T05:35:45.751Z,99.90
2019-06-01T05:38:16.407Z,99.90
2019-06-01T05:40:45.906Z,99.90
2019-06-01T05:43:18.080Z,99.90
2019-06-01T05:45:46.313Z,99.90
2019-06-01T05:48:23.154Z,99.90
2019-06-01T05:50:46.662Z,99.90
2019-06-01T05:53:16.706Z,99.90
2019-06-01T05:55:46.165Z,99.90
2019-06-01T05:58:17.252Z,99.90
2019-06-01T06:00:46.840Z,99.90
2019-06-01T06:03:20.764Z,99.90
2019-06-01T06:05:47.691Z,99.90
2019-06-01T06:08:17.991Z,99.90
2019-06-01T06:10:48.391Z,99.90
2019-06-01T06:13:17.770Z,99.90
2019-06-01T06:15:48.856Z,99.90
2019-06-01T06:18:18.169Z,99.90
2019-06-01T06:20:49.217Z,99.00
2019-06-01T06:23:18.589Z,99.00
2019-06-01T06:25:48.658Z,97.50
2019-06-01T06:28:18.806Z,98.20
2019-06-01T06:30:48.560Z,98.70
2019-06-01T06:33:19.344Z,97.80
2019-06-01T06:35:49.098Z,97.10
2019-06-01T06:38:19.773Z,97.10
2019-06-01T06:40:49.208Z,97.00
2019-06-01T06:43:29.694Z,96.80
2019-06-01T06:45:55.745Z,96.30
2019-06-01T06:48:25.202Z,95.90
2019-06-01T06:50:55.042Z,95.00
2019-06-01T06:53:32.768Z,95.30
2019-06-01T06:55:55.492Z,94.80
2019-06-01T06:58:26.578Z,95.00
2019-06-01T07:00:55.949Z,96.30
2019-06-01T07:03:25.340Z,95.20
2019-06-01T07:05:54.651Z,94.30
2019-06-01T07:08:24.126Z,93.60
2019-06-01T07:10:53.450Z,93.70
2019-06-01T07:13:23.404Z,93.60
2019-06-01T07:15:52.908Z,93.40
2019-06-01T07:18:23.538Z,93.70
2019-06-01T07:20:53.081Z,93.50
2019-06-01T07:23:23.726Z,93.30
2019-06-01T07:25:54.080Z,93.80
2019-06-01T07:28:24.156Z,93.90
2019-06-01T07:30:53.528Z,93.20
2019-06-01T07:33:24.191Z,91.30
2019-06-01T07:35:54.601Z,91.30
2019-06-01T07:38:24.689Z,90.80
2019-06-01T07:40:54.130Z,91.60
2019-06-01T07:43:24.888Z,91.10
2019-06-01T07:45:54.299Z,90.70
2019-06-01T07:48:24.889Z,91.90
2019-06-01T07:50:54.486Z,90.90
2019-06-01T07:53:24.434Z,89.90
2019-06-01T07:55:56.492Z,90.50
2019-06-01T07:58:26.770Z,88.60
2019-06-01T08:00:56.137Z,86.40
2019-06-01T08:03:30.681Z,86.70
2019-06-01T08:05:57.480Z,85.80
2019-06-01T08:08:27.346Z,85.30
2019-06-01T08:10:56.757Z,87.20
2019-06-01T08:13:30.389Z,85.10
2019-06-01T08:15:57.182Z,83.20
2019-06-01T08:18:28.263Z,81.50
2019-06-01T08:20:59.339Z,83.60
2019-06-01T08:23:28.656Z,78.60
2019-06-01T08:25:59.476Z,79.80
2019-06-01T08:28:29.077Z,79.60
2019-06-01T08:31:03.019Z,78.10
2019-06-01T08:33:35.009Z,77.20
2019-06-01T08:36:05.544Z,77.70
2019-06-01T08:38:38.814Z,76.50
2019-06-01T08:41:08.249Z,77.50
2019-06-01T08:43:40.992Z,77.80
2019-06-01T08:46:10.301Z,77.20
2019-06-01T08:48:39.633Z,76.70
2019-06-01T08:51:10.473Z,76.90
2019-06-01T08:53:39.828Z,79.20
2019-06-01T08:56:09.155Z,78.20
2019-06-01T08:58:38.550Z,75.30
2019-06-01T09:01:07.901Z,77.30
2019-06-01T09:03:45.534Z,74.80
2019-06-01T09:06:08.688Z,73.30
2019-06-01T09:08:38.038Z,70.70
2019-06-01T09:11:07.407Z,71.30
2019-06-01T09:13:37.609Z,69.60
2019-06-01T09:16:06.916Z,71.80
2019-06-01T09:18:36.251Z,71.20
2019-06-01T09:21:05.716Z,68.30
2019-06-01T09:23:37.054Z,67.30
2019-06-01T09:26:06.109Z,64.80
2019-06-01T09:28:36.205Z,64.30
2019-06-01T09:31:05.662Z,63.10
2019-06-01T09:33:35.572Z,63.40
2019-06-01T09:36:06.261Z,64.00
2019-06-01T09:38:36.046Z,64.70
2019-06-01T09:41:06.572Z,63.60
2019-06-01T09:43:37.093Z,59.50
2019-06-01T09:46:05.831Z,59.30
2019-06-01T09:48:35.644Z,57.40
2019-06-01T09:51:05.230Z,57.70
2019-06-01T09:53:35.962Z,58.30
2019-06-01T09:56:04.819Z,58.70
2019-06-01T09:58:34.581Z,56.00
2019-06-01T10:01:04.128Z,57.40
2019-06-01T10:03:34.466Z,58.00
2019-06-01T10:06:04.106Z,56.20
2019-06-01T10:08:34.308Z,55.60
2019-06-01T10:11:03.985Z,56.50
2019-06-01T10:13:36.290Z,54.40
2019-06-01T10:16:05.821Z,55.80
2019-06-01T10:18:35.864Z,56.90
2019-06-01T10:21:07.195Z,53.20
2019-06-01T10:23:36.701Z,54.40
2019-06-01T10:26:06.103Z,52.00
2019-06-01T10:28:37.653Z,52.90
2019-06-01T10:31:07.120Z,52.60
2019-06-01T10:33:37.390Z,52.20
2019-06-01T10:36:20.063Z,52.30
2019-06-01T10:38:39.235Z,52.50
2019-06-01T10:41:08.710Z,54.20
2019-06-01T10:43:38.023Z,54.00
2019-06-01T10:46:07.548Z,53.90
2019-06-01T10:48:37.996Z,53.20
2019-06-01T10:51:07.439Z,53.20
2019-06-01T10:53:38.076Z,54.70
2019-06-01T10:56:07.521Z,53.10
2019-06-01T10:58:54.443Z,53.60
2019-06-01T11:01:07.969Z,53.10
2019-06-01T11:03:38.674Z,53.80
2019-06-01T11:06:07.348Z,52.80
2019-06-01T11:08:37.151Z,54.70
2019-06-01T11:11:06.706Z,52.20
2019-06-01T11:13:37.085Z,51.40
2019-06-01T11:16:06.816Z,52.00
2019-06-01T11:18:37.493Z,54.20
2019-06-01T11:21:06.333Z,53.30
2019-06-01T11:23:35.626Z,54.30
2019-06-01T11:26:07.585Z,52.90
2019-06-01T11:28:38.218Z,52.10
2019-06-01T11:31:07.822Z,52.60
2019-06-01T11:33:38.251Z,51.40
2019-06-01T11:36:07.407Z,53.70
2019-06-01T11:38:36.759Z,53.40
2019-06-01T11:41:07.829Z,55.40
2019-06-01T11:43:38.512Z,53.90
2019-06-01T11:46:08.933Z,53.00
2019-06-01T11:48:39.247Z,53.40
2019-06-01T11:51:09.087Z,51.00
2019-06-01T11:53:39.981Z,50.90
2019-06-01T11:56:10.241Z,48.30
2019-06-01T11:58:39.546Z,49.30
2019-06-01T12:01:09.888Z,50.90
2019-06-01T12:03:40.008Z,49.80
2019-06-01T12:06:10.337Z,50.80
2019-06-01T12:08:40.244Z,48.70
2019-06-01T12:11:10.477Z,47.60
2019-06-01T12:13:40.578Z,48.50
2019-06-01T12:16:10.980Z,48.20
2019-06-01T12:18:41.015Z,48.20
2019-06-01T12:21:11.136Z,47.40
2019-06-01T12:23:41.496Z,48.10
2019-06-01T12:26:11.444Z,48.10
2019-06-01T12:28:43.750Z,47.60
2019-06-01T12:31:13.215Z,49.10
2019-06-01T12:33:42.546Z,48.40
2019-06-01T12:36:12.144Z,47.00
2019-06-01T12:38:51.595Z,47.00
2019-06-01T12:41:21.923Z,48.70
2019-06-01T12:44:09.941Z,46.80
2019-06-01T12:46:39.844Z,50.30
2019-06-01T12:49:10.609Z,47.30
2019-06-01T12:51:40.572Z,46.70
2019-06-01T12:54:11.183Z,44.80
2019-06-01T12:56:40.821Z,47.50
2019-06-01T12:59:10.267Z,47.10
2019-06-01T13:01:39.573Z,47.00
2019-06-01T13:04:08.976Z,47.70
2019-06-01T13:06:38.331Z,47.00
2019-06-01T13:09:08.567Z,45.20
2019-06-01T13:11:37.880Z,46.60
2019-06-01T13:14:07.324Z,46.90
2019-06-01T13:16:36.840Z,46.70
2019-06-01T13:19:06.327Z,50.80
2019-06-01T13:21:35.794Z,48.60
2019-06-01T13:24:05.291Z,49.40
2019-06-01T13:26:34.625Z,44.90
2019-06-01T13:29:05.616Z,45.70
2019-06-01T13:31:34.985Z,47.30
2019-06-01T13:34:04.440Z,46.80
2019-06-01T13:36:33.889Z,46.80
2019-06-01T13:39:06.985Z,45.10
2019-06-01T13:41:37.088Z,45.20
2019-06-01T13:44:06.448Z,46.10
2019-06-01T13:46:35.739Z,46.70
2019-06-01T13:49:05.053Z,48.20
2019-06-01T13:51:34.360Z,46.70
2019-06-01T13:54:03.831Z,46.70
2019-06-01T13:56:33.135Z,45.80
2019-06-01T13:59:02.544Z,46.40
2019-06-01T14:01:31.888Z,46.50
2019-06-01T14:04:01.298Z,45.70
2019-06-01T14:06:30.610Z,44.90
2019-06-01T14:08:59.943Z,45.50
2019-06-01T14:11:29.295Z,46.10
2019-06-01T14:13:58.625Z,43.40
2019-06-01T14:16:27.928Z,44.40
2019-06-01T14:18:57.243Z,43.90
2019-06-01T14:21:26.589Z,43.30
2019-06-01T14:23:56.168Z,45.20
2019-06-01T14:26:25.605Z,46.70
2019-06-01T14:28:54.925Z,44.90
2019-06-01T14:31:24.255Z,44.60
2019-06-01T14:33:54.840Z,43.60
2019-06-01T14:36:24.411Z,43.10
2019-06-01T14:38:56.304Z,44.60
2019-06-01T14:41:24.944Z,44.40
2019-06-01T14:43:54.256Z,47.00
2019-06-01T14:46:23.635Z,45.50
2019-06-01T14:48:53.475Z,44.40
2019-06-01T14:51:22.844Z,42.50
2019-06-01T14:53:52.194Z,41.90
2019-06-01T14:56:21.650Z,42.60
2019-06-01T14:58:51.909Z,43.40
2019-06-01T15:01:31.734Z,42.80
2019-06-01T15:03:53.962Z,42.10
2019-06-01T15:06:24.003Z,42.60
2019-06-01T15:09:10.711Z,43.10
2019-06-01T15:11:24.572Z,41.80
2019-06-01T15:13:54.476Z,42.50
2019-06-01T15:16:23.992Z,42.60
2019-06-01T15:18:54.289Z,44.80
2019-06-01T15:21:24.091Z,45.70
2019-06-01T15:23:53.881Z,46.50
2019-06-01T15:26:23.304Z,47.00
2019-06-01T15:28:53.161Z,48.50
2019-06-01T15:31:23.943Z,48.10
2019-06-01T15:33:53.456Z,47.70
2019-06-01T15:36:23.573Z,47.70
2019-06-01T15:38:53.676Z,48.60
2019-06-01T15:41:23.790Z,49.00
2019-06-01T15:43:54.942Z,49.30
2019-06-01T15:46:24.340Z,48.80
2019-06-01T15:48:55.996Z,48.90
2019-06-01T15:51:25.502Z,49.40
2019-06-01T15:53:54.902Z,48.90
2019-06-01T15:56:24.881Z,49.40
2019-06-01T15:58:56.923Z,50.70
2019-06-01T16:01:25.137Z,51.20
2019-06-01T16:03:55.134Z,51.10
2019-06-01T16:06:25.421Z,51.40
2019-06-01T16:08:57.137Z,53.30
2019-06-01T16:11:26.711Z,51.90
2019-06-01T16:13:57.685Z,51.40
2019-06-01T16:16:30.175Z,52.10
2019-06-01T16:19:04.095Z,52.60
2019-06-01T16:21:30.858Z,53.60
2019-06-01T16:24:00.456Z,53.20
2019-06-01T16:26:29.767Z,53.30
2019-06-01T16:29:00.410Z,55.50
2019-06-01T16:31:30.869Z,55.70
2019-06-01T16:34:00.688Z,54.40
2019-06-01T16:36:30.131Z,53.50
2019-06-01T16:39:03.054Z,54.20
2019-06-01T16:41:32.094Z,55.20
2019-06-01T16:44:01.782Z,54.20
2019-06-01T16:46:31.400Z,54.10
2019-06-01T16:49:01.565Z,55.20
2019-06-01T16:51:50.472Z,54.80
2019-06-01T16:54:19.815Z,55.30
2019-06-01T16:56:49.172Z,56.00
2019-06-01T16:59:18.875Z,54.80
2019-06-01T17:01:48.292Z,54.80
2019-06-01T17:04:17.710Z,55.30
2019-06-01T17:06:47.655Z,55.30
2019-06-01T17:09:17.207Z,56.20
2019-06-01T17:11:46.610Z,55.80
2019-06-01T17:14:16.093Z,55.70
2019-06-01T17:16:45.474Z,56.30
2019-06-01T17:19:15.048Z,56.60
2019-06-01T17:21:44.539Z,56.90
2019-06-01T17:24:13.890Z,57.30
2019-06-01T17:26:43.312Z,57.50
2019-06-01T17:29:12.682Z,56.30
2019-06-01T17:31:53.933Z,56.60
2019-06-01T17:34:13.030Z,57.20
2019-06-01T17:36:42.493Z,56.80
2019-06-01T17:39:12.308Z,56.20
2019-06-01T17:41:41.714Z,56.30
2019-06-01T17:44:11.048Z,57.10
2019-06-01T17:46:53.109Z,56.00
2019-06-01T17:49:12.380Z,57.80
2019-06-01T17:51:41.900Z,58.70
2019-06-01T17:54:11.867Z,61.50
2019-06-01T17:56:41.389Z,59.90
2019-06-01T17:59:11.584Z,57.30
2019-06-01T18:01:42.480Z,58.50
2019-06-01T18:04:12.238Z,58.00
2019-06-01T18:06:41.632Z,60.80
2019-06-01T18:09:12.141Z,60.50
2019-06-01T18:11:41.705Z,62.00
2019-06-01T18:14:12.279Z,60.60
2019-06-01T18:16:41.791Z,60.70
2019-06-01T18:19:12.265Z,61.50
2019-06-01T18:21:42.278Z,63.40
2019-06-01T18:24:12.693Z,63.10
2019-06-01T18:26:42.219Z,64.20
2019-06-01T18:29:12.687Z,65.30
2019-06-01T18:31:42.082Z,65.00
2019-06-01T18:34:11.801Z,65.80
2019-06-01T18:36:41.309Z,66.50
2019-06-01T18:39:11.774Z,67.30
2019-06-01T18:41:41.231Z,67.60
2019-06-01T18:44:11.849Z,67.70
2019-06-01T18:46:40.569Z,68.40
2019-06-01T18:49:10.020Z,69.10
2019-06-01T18:51:39.476Z,70.20
2019-06-01T18:54:08.853Z,71.10
2019-06-01T18:56:38.292Z,71.90
2019-06-01T18:59:08.512Z,73.50
2019-06-01T19:01:39.072Z,74.80
2019-06-01T19:04:09.554Z,74.80
2019-06-01T19:06:39.122Z,75.50
2019-06-01T19:09:09.403Z,78.30
2019-06-01T19:11:38.911Z,78.10
2019-06-01T19:14:08.308Z,81.50
2019-06-01T19:16:37.880Z,82.00
2019-06-01T19:19:08.303Z,81.90
2019-06-01T19:21:38.283Z,82.50
2019-06-01T19:24:08.510Z,83.10
2019-06-01T19:26:38.558Z,85.10
2019-06-01T19:29:08.854Z,86.20
2019-06-01T19:31:39.175Z,86.50
2019-06-01T19:34:09.065Z,87.00
2019-06-01T19:36:39.247Z,88.10
2019-06-01T19:39:09.379Z,89.30
2019-06-01T19:41:44.686Z,89.90
2019-06-01T19:44:11.460Z,90.30
2019-06-01T19:46:40.909Z,90.30
2019-06-01T19:49:10.814Z,90.60
2019-06-01T19:51:49.809Z,90.70
2019-06-01T19:54:19.564Z,91.00
2019-06-01T19:56:48.888Z,91.30
2019-06-01T19:59:20.071Z,91.60
2019-06-01T20:01:49.390Z,91.70
2019-06-01T20:04:18.750Z,91.90
2019-06-01T20:06:48.135Z,92.20
2019-06-01T20:09:17.433Z,92.50
2019-06-01T20:12:00.945Z,92.60
2019-06-01T20:14:19.164Z,93.00
2019-06-01T20:16:48.565Z,92.90
2019-06-01T20:19:18.006Z,92.80
2019-06-01T20:21:47.327Z,93.30
2019-06-01T20:24:17.401Z,93.90
2019-06-01T20:26:49.510Z,93.80
2019-06-01T20:29:20.125Z,93.90
2019-06-01T20:31:49.450Z,94.10
2019-06-01T20:34:22.570Z,94.40
2019-06-01T20:36:52.008Z,94.70
2019-06-01T20:39:22.390Z,94.80
2019-06-01T20:41:51.920Z,94.90
2019-06-01T20:44:21.263Z,95.10
2019-06-01T20:46:50.611Z,95.00
2019-06-01T20:49:20.685Z,95.30
2019-06-01T20:51:50.114Z,95.50
2019-06-01T20:54:20.967Z,95.50
2019-06-01T20:56:50.488Z,95.60
2019-06-01T20:59:21.495Z,95.30
2019-06-01T21:01:50.918Z,95.60
2019-06-01T21:04:20.413Z,95.80
2019-06-01T21:06:49.796Z,96.20
2019-06-01T21:09:21.939Z,96.30
2019-06-01T21:11:51.389Z,96.70
2019-06-01T21:14:20.846Z,97.10
2019-06-01T21:16:50.148Z,97.20
2019-06-01T21:19:20.442Z,97.20
2019-06-01T21:21:49.903Z,97.30
2019-06-01T21:24:19.245Z,97.60
2019-06-01T21:26:48.571Z,97.90
2019-06-01T21:29:18.751Z,97.60
2019-06-01T21:31:48.335Z,98.00
2019-06-01T21:34:17.674Z,98.10
2019-06-01T21:36:47.024Z,98.20
2019-06-01T21:39:17.507Z,98.40
2019-06-01T21:41:47.108Z,98.50
2019-06-01T21:44:17.415Z,98.60
2019-06-01T21:46:48.621Z,98.70
2019-06-01T21:49:17.960Z,98.80
2019-06-01T21:51:47.280Z,99.00
2019-06-01T21:54:17.828Z,99.30
2019-06-01T21:56:47.422Z,99.20
2019-06-01T21:59:16.781Z,99.50
2019-06-01T22:01:46.286Z,99.70
2019-06-01T22:04:16.713Z,99.60
2019-06-01T22:06:46.540Z,99.60
2019-06-01T22:09:17.164Z,99.70
2019-06-01T22:11:46.744Z,99.60
2019-06-01T22:14:17.258Z,99.90
2019-06-01T22:16:46.810Z,99.90
2019-06-01T22:19:17.448Z,99.90
2019-06-01T22:21:46.125Z,99.90
2019-06-01T22:24:15.378Z,99.90
2019-06-01T22:26:44.685Z,99.90
2019-06-01T22:29:14.038Z,99.90
2019-06-01T22:31:43.343Z,99.90
2019-06-01T22:34:12.757Z,99.90
2019-06-01T22:36:42.156Z,99.90
2019-06-01T22:39:11.538Z,99.90
2019-06-01T22:41:40.884Z,99.90
2019-06-01T22:44:10.246Z,99.90
2019-06-01T22:46:39.578Z,99.90
2019-06-01T22:49:08.913Z,99.90
2019-06-01T22:51:38.257Z,99.90
2019-06-01T22:54:07.564Z,99.90
2019-06-01T22:56:36.872Z,99.90
2019-06-01T22:59:06.200Z,99.90
2019-06-01T23:01:35.534Z,99.90
2019-06-01T23:04:04.934Z,99.90
2019-06-01T23:06:34.254Z,99.90
2019-06-01T23:09:04.451Z,99.90
2019-06-01T23:11:33.891Z,99.90
2019-06-01T23:14:03.637Z,99.90
2019-06-01T23:16:32.980Z,99.90
2019-06-01T23:19:02.294Z,99.90
2019-06-01T23:21:32.023Z,99.90
2019-06-01T23:24:01.408Z,99.90
2019-06-01T23:26:30.737Z,99.90
2019-06-01T23:29:00.106Z,99.90
2019-06-01T23:31:30.464Z,99.90
2019-06-01T23:33:59.816Z,99.90
2019-06-01T23:36:29.147Z,99.90
2019-06-01T23:38:58.455Z,99.90
2019-06-01T23:41:28.773Z,99.90
2019-06-01T23:44:11.278Z,99.90
2019-06-01T23:46:29.156Z,99.90
2019-06-01T23:48:58.544Z,99.90
2019-06-01T23:51:27.900Z,99.90
2019-06-01T23:53:57.237Z,99.90
2019-06-01T23:56:27.654Z,99.90
2019-06-01T23:58:57.052Z,99.90
